createdAt,value
2023-05-24T00:00:23.592Z,99.90
2023-05-24T00:02:51.288Z,99.90
2023-05-24T00:05:19.019Z,99.90
2023-05-24T00:07:46.503Z,99.90
2023-05-24T00:10:13.985Z,99.90
2023-05-24T00:12:41.453Z,99.90
2023-05-24T00:15:09.288Z,99.90
2023-05-24T00:17:41.158Z,99.90
2023-05-24T00:20:14.319Z,99.90
2023-05-24T00:22:42.393Z,99.90
2023-05-24T00:25:10.048Z,99.90
2023-05-24T00:27:37.734Z,99.90
2023-05-24T00:30:06.478Z,99.90
2023-05-24T00:32:34.058Z,99.90
2023-05-24T00:35:01.541Z,99.90
2023-05-24T00:37:29.628Z,99.90
2023-05-24T00:39:57.165Z,99.90
2023-05-24T00:42:24.784Z,99.90
2023-05-24T00:44:52.260Z,99.90
2023-05-24T00:47:19.843Z,99.90
2023-05-24T00:49:47.481Z,99.90
2023-05-24T00:52:15.210Z,99.90
2023-05-24T00:54:44.078Z,99.90
2023-05-24T00:57:14.067Z,99.90
2023-05-24T00:59:41.802Z,99.90
2023-05-24T01:02:09.384Z,99.90
2023-05-24T01:04:39.770Z,99.90
2023-05-24T01:07:17.095Z,99.90
2023-05-24T01:10:04.736Z,99.90
2023-05-24T01:12:56.433Z,99.90
2023-05-24T01:15:29.834Z,99.90
2023-05-24T01:18:36.915Z,99.90
2023-05-24T01:21:14.076Z,99.90
2023-05-24T01:24:18.170Z,99.90
2023-05-24T01:27:03.525Z,99.90
2023-05-24T01:29:32.595Z,99.90
2023-05-24T01:32:00.484Z,99.90
2023-05-24T01:34:28.021Z,99.90
2023-05-24T01:36:55.403Z,99.90
2023-05-24T01:39:26.435Z,99.90
2023-05-24T01:42:18.350Z,99.90
2023-05-24T01:45:07.600Z,99.90
2023-05-24T01:47:46.982Z,99.90
2023-05-24T01:50:41.688Z,99.90
2023-05-24T01:53:13.382Z,99.90
2023-05-24T01:55:41.492Z,99.90
2023-05-24T01:58:10.474Z,99.90
2023-05-24T02:00:40.895Z,99.90
2023-05-24T02:03:09.075Z,99.90
2023-05-24T02:05:37.679Z,99.90
2023-05-24T02:08:06.805Z,99.90
2023-05-24T02:10:34.328Z,99.90
2023-05-24T02:13:01.777Z,99.90
2023-05-24T02:15:30.503Z,99.90
2023-05-24T02:17:58.815Z,99.90
2023-05-24T02:20:26.588Z,99.90
2023-05-24T02:22:54.279Z,99.90
2023-05-24T02:25:21.764Z,99.90
2023-05-24T02:27:49.340Z,99.90
2023-05-24T02:30:16.803Z,99.90
2023-05-24T02:32:44.481Z,99.90
2023-05-24T02:35:12.164Z,99.90
2023-05-24T02:37:39.645Z,99.90
2023-05-24T02:40:07.905Z,99.90
2023-05-24T02:42:35.941Z,99.90
2023-05-24T02:45:03.652Z,99.90
2023-05-24T02:47:31.140Z,99.90
2023-05-24T02:49:58.707Z,99.90
2023-05-24T02:52:26.772Z,99.90
2023-05-24T02:54:54.223Z,99.90
2023-05-24T02:57:22.912Z,99.90
2023-05-24T02:59:51.124Z,99.90
2023-05-24T03:02:19.554Z,99.90
2023-05-24T03:04:46.972Z,99.90
2023-05-24T03:07:15.007Z,99.90
2023-05-24T03:09:43.375Z,99.90
2023-05-24T03:12:10.785Z,99.90
2023-05-24T03:14:38.781Z,99.90
2023-05-24T03:17:06.620Z,99.90
2023-05-24T03:19:35.255Z,99.90
2023-05-24T03:22:02.672Z,99.90
2023-05-24T03:24:30.103Z,99.90
2023-05-24T03:26:57.848Z,99.90
2023-05-24T03:29:25.511Z,99.90
2023-05-24T03:31:54.273Z,99.90
2023-05-24T03:34:21.858Z,99.90
2023-05-24T03:36:50.072Z,99.90
2023-05-24T03:39:18.511Z,99.90
2023-05-24T03:41:58.598Z,99.90
2023-05-24T03:44:26.439Z,99.90
2023-05-24T03:46:54.709Z,99.90
2023-05-24T03:49:22.121Z,99.90
2023-05-24T03:51:49.969Z,99.90
2023-05-24T03:54:18.994Z,99.90
2023-05-24T03:56:46.628Z,99.90
2023-05-24T03:59:14.071Z,99.90
2023-05-24T04:01:41.540Z,99.90
2023-05-24T04:04:09.130Z,99.90
2023-05-24T04:06:38.158Z,99.90
2023-05-24T04:09:06.010Z,99.90
2023-05-24T04:11:33.572Z,99.90
2023-05-24T04:14:00.995Z,99.90
2023-05-24T04:16:31.818Z,99.90
2023-05-24T04:19:01.079Z,99.90
2023-05-24T04:21:29.311Z,99.90
2023-05-24T04:23:58.177Z,99.90
2023-05-24T04:26:25.854Z,99.90
2023-05-24T04:28:53.918Z,99.90
2023-05-24T04:31:21.719Z,99.90
2023-05-24T04:33:50.157Z,99.90
2023-05-24T04:36:17.806Z,99.90
2023-05-24T04:38:46.352Z,99.90
2023-05-24T04:41:13.977Z,99.90
2023-05-24T04:43:41.385Z,99.90
2023-05-24T04:46:09.491Z,99.90
2023-05-24T04:48:37.099Z,99.90
2023-05-24T04:51:04.555Z,99.90
2023-05-24T04:53:32.979Z,99.90
2023-05-24T04:56:00.542Z,99.90
2023-05-24T04:58:28.012Z,99.90
2023-05-24T05:00:55.396Z,99.90
2023-05-24T05:03:23.034Z,99.90
2023-05-24T05:05:50.596Z,99.90
2023-05-24T05:08:18.019Z,99.90
2023-05-24T05:10:46.367Z,99.90
2023-05-24T05:13:13.764Z,99.90
2023-05-24T05:15:42.869Z,99.90
2023-05-24T05:18:10.602Z,99.90
2023-05-24T05:20:38.205Z,99.90
2023-05-24T05:23:05.880Z,99.90
2023-05-24T05:25:33.371Z,99.90
2023-05-24T05:28:00.844Z,99.90
2023-05-24T05:30:28.239Z,99.90
2023-05-24T05:32:55.754Z,99.90
2023-05-24T05:35:23.156Z,99.90
2023-05-24T05:37:50.885Z,99.90
2023-05-24T05:40:18.482Z,99.90
2023-05-24T05:42:47.563Z,99.90
2023-05-24T05:45:15.060Z,99.90
2023-05-24T05:47:43.302Z,99.90
2023-05-24T05:50:11.241Z,99.90
2023-05-24T05:52:38.627Z,99.90
2023-05-24T05:55:06.706Z,99.90
2023-05-24T05:57:34.150Z,99.90
2023-05-24T06:00:01.810Z,99.90
2023-05-24T06:02:39.422Z,99.90
2023-05-24T06:05:07.291Z,99.90
2023-05-24T06:07:35.859Z,99.90
2023-05-24T06:10:03.781Z,99.90
2023-05-24T06:12:31.249Z,99.90
2023-05-24T06:14:59.558Z,99.90
2023-05-24T06:17:30.183Z,99.90
2023-05-24T06:19:57.644Z,99.90
2023-05-24T06:22:25.227Z,99.90
2023-05-24T06:24:52.766Z,99.90
2023-05-24T06:27:20.175Z,99.90
2023-05-24T06:29:47.639Z,99.90
2023-05-24T06:32:15.051Z,99.90
2023-05-24T06:34:43.241Z,99.90
2023-05-24T06:37:10.768Z,99.90
2023-05-24T06:39:39.301Z,99.90
2023-05-24T06:42:07.208Z,99.90
2023-05-24T06:44:37.258Z,99.90
2023-05-24T06:47:05.888Z,99.90
2023-05-24T06:49:33.767Z,99.90
2023-05-24T06:52:01.521Z,99.90
2023-05-24T06:54:29.002Z,99.90
2023-05-24T06:56:56.901Z,99.90
2023-05-24T06:59:24.469Z,99.90
2023-05-24T07:01:58.455Z,99.90
2023-05-24T07:04:28.452Z,99.80
2023-05-24T07:06:55.960Z,99.20
2023-05-24T07:09:23.352Z,98.10
2023-05-24T07:11:51.030Z,97.00
2023-05-24T07:14:18.480Z,96.50
2023-05-24T07:16:48.784Z,96.30
2023-05-24T07:19:16.554Z,95.40
2023-05-24T07:21:43.951Z,94.30
2023-05-24T07:24:13.069Z,94.20
2023-05-24T07:26:42.190Z,93.90
2023-05-24T07:29:09.686Z,93.00
2023-05-24T07:31:37.042Z,92.70
2023-05-24T07:34:04.427Z,92.50
2023-05-24T07:36:34.999Z,91.90
2023-05-24T07:39:04.948Z,91.10
2023-05-24T07:41:33.556Z,90.50
2023-05-24T07:44:01.072Z,90.90
2023-05-24T07:46:28.512Z,90.60
2023-05-24T07:48:56.220Z,91.30
2023-05-24T07:51:23.711Z,90.40
2023-05-24T07:53:51.139Z,90.00
2023-05-24T07:56:18.770Z,91.10
2023-05-24T07:58:46.952Z,90.10
2023-05-24T08:01:14.574Z,89.30
2023-05-24T08:03:42.346Z,89.20
2023-05-24T08:06:10.153Z,89.40
2023-05-24T08:08:38.847Z,89.80
2023-05-24T08:11:08.017Z,89.30
2023-05-24T08:13:35.725Z,89.10
2023-05-24T08:16:03.673Z,89.40
2023-05-24T08:18:31.260Z,89.00
2023-05-24T08:20:58.696Z,89.00
2023-05-24T08:23:26.177Z,87.70
2023-05-24T08:25:54.347Z,85.90
2023-05-24T08:28:22.170Z,88.00
2023-05-24T08:30:49.790Z,88.40
2023-05-24T08:33:17.474Z,89.40
2023-05-24T08:35:45.056Z,90.20
2023-05-24T08:38:12.539Z,89.50
2023-05-24T08:40:40.076Z,89.00
2023-05-24T08:43:12.069Z,87.40
2023-05-24T08:45:39.986Z,87.90
2023-05-24T08:48:08.338Z,89.00
2023-05-24T08:50:35.895Z,89.00
2023-05-24T08:53:06.643Z,89.70
2023-05-24T08:55:35.324Z,90.70
2023-05-24T08:58:02.883Z,90.50
2023-05-24T09:00:30.406Z,90.70
2023-05-24T09:02:58.940Z,90.60
2023-05-24T09:05:27.283Z,90.90
2023-05-24T09:07:56.865Z,90.90
2023-05-24T09:10:25.506Z,91.10
2023-05-24T09:12:57.517Z,91.00
2023-05-24T09:15:25.094Z,91.00
2023-05-24T09:17:52.451Z,91.40
2023-05-24T09:20:21.306Z,91.20
2023-05-24T09:22:52.237Z,90.50
2023-05-24T09:25:23.458Z,90.30
2023-05-24T09:27:52.271Z,90.60
2023-05-24T09:30:21.196Z,90.70
2023-05-24T09:32:59.769Z,90.00
2023-05-24T09:35:28.397Z,89.30
2023-05-24T09:38:00.774Z,88.20
2023-05-24T09:40:28.827Z,87.20
2023-05-24T09:43:10.125Z,88.40
2023-05-24T09:45:49.073Z,89.50
2023-05-24T09:48:17.655Z,90.20
2023-05-24T09:50:47.983Z,90.00
2023-05-24T09:53:18.827Z,89.80
2023-05-24T09:55:46.400Z,90.40
2023-05-24T09:58:15.184Z,90.70
2023-05-24T10:00:43.085Z,88.20
2023-05-24T10:03:13.553Z,87.80
2023-05-24T10:05:44.523Z,88.20
2023-05-24T10:08:12.206Z,87.70
2023-05-24T10:10:39.697Z,90.10
2023-05-24T10:13:07.679Z,90.10
2023-05-24T10:15:35.080Z,91.00
2023-05-24T10:18:10.471Z,90.20
2023-05-24T10:20:41.489Z,89.50
2023-05-24T10:23:10.518Z,90.10
2023-05-24T10:25:44.848Z,89.00
2023-05-24T10:28:16.159Z,88.40
2023-05-24T10:31:21.378Z,89.60
2023-05-24T10:33:51.908Z,87.20
2023-05-24T10:36:19.455Z,89.50
2023-05-24T10:38:47.421Z,90.90
2023-05-24T10:41:15.494Z,89.30
2023-05-24T10:44:00.977Z,90.50
2023-05-24T10:46:34.997Z,91.00
2023-05-24T10:49:04.415Z,91.10
2023-05-24T10:51:40.715Z,90.60
2023-05-24T10:54:35.934Z,90.30
2023-05-24T10:57:05.257Z,90.30
2023-05-24T10:59:39.560Z,90.80
2023-05-24T11:02:10.043Z,91.90
2023-05-24T11:04:46.148Z,92.90
2023-05-24T11:07:19.329Z,93.50
2023-05-24T11:09:52.821Z,94.20
2023-05-24T11:12:23.641Z,93.70
2023-05-24T11:14:53.063Z,93.80
2023-05-24T11:17:24.047Z,94.90
2023-05-24T11:19:53.668Z,95.90
2023-05-24T11:22:27.017Z,95.70
2023-05-24T11:24:54.520Z,95.90
2023-05-24T11:27:22.078Z,95.30
2023-05-24T11:29:49.642Z,96.10
2023-05-24T11:32:19.193Z,96.80
2023-05-24T11:34:47.801Z,97.00
2023-05-24T11:37:18.104Z,96.40
2023-05-24T11:39:52.996Z,96.70
2023-05-24T11:42:23.342Z,97.20
2023-05-24T11:44:53.279Z,96.20
2023-05-24T11:47:22.232Z,96.10
2023-05-24T11:49:52.973Z,95.90
2023-05-24T11:52:20.755Z,95.80
2023-05-24T11:54:49.736Z,97.20
2023-05-24T11:57:22.457Z,96.80
2023-05-24T11:59:49.865Z,97.80
2023-05-24T12:02:18.068Z,97.60
2023-05-24T12:04:46.787Z,98.70
2023-05-24T12:07:16.506Z,98.30
2023-05-24T12:09:43.930Z,98.70
2023-05-24T12:12:11.383Z,99.20
2023-05-24T12:14:39.886Z,97.60
2023-05-24T12:17:17.113Z,97.30
2023-05-24T12:19:44.727Z,96.60
2023-05-24T12:22:12.138Z,97.10
2023-05-24T12:24:42.932Z,97.10
2023-05-24T12:27:11.667Z,96.90
2023-05-24T12:29:41.650Z,97.70
2023-05-24T12:32:13.636Z,97.50
2023-05-24T12:34:43.489Z,97.00
2023-05-24T12:37:12.492Z,96.50
2023-05-24T12:39:42.792Z,96.40
2023-05-24T12:42:12.463Z,97.10
2023-05-24T12:44:40.039Z,97.00
2023-05-24T12:47:09.209Z,97.50
2023-05-24T12:49:37.098Z,97.60
2023-05-24T12:52:04.809Z,97.70
2023-05-24T12:54:32.307Z,97.80
2023-05-24T12:57:00.428Z,98.50
2023-05-24T12:59:29.064Z,97.80
2023-05-24T13:01:57.706Z,97.80
2023-05-24T13:04:28.106Z,99.10
2023-05-24T13:06:55.911Z,98.00
2023-05-24T13:09:24.085Z,98.60
2023-05-24T13:11:52.551Z,99.60
2023-05-24T13:14:20.551Z,99.00
2023-05-24T13:16:48.828Z,98.50
2023-05-24T13:19:17.209Z,99.80
2023-05-24T13:21:44.945Z,99.90
2023-05-24T13:24:16.453Z,98.60
2023-05-24T13:26:45.433Z,98.80
2023-05-24T13:31:44.057Z,97.50
2023-05-24T13:34:11.815Z,98.50
2023-05-24T13:36:39.369Z,97.80
2023-05-24T13:41:41.422Z,97.70
2023-05-24T13:44:10.047Z,97.70
2023-05-24T13:46:38.592Z,97.40
2023-05-24T13:49:07.343Z,98.80
2023-05-24T13:51:34.942Z,99.70
2023-05-24T13:54:03.380Z,98.70
2023-05-24T13:56:34.219Z,97.10
2023-05-24T13:59:03.673Z,97.60
2023-05-24T14:01:32.291Z,98.60
2023-05-24T14:04:04.803Z,98.30
2023-05-24T14:06:33.112Z,97.10
2023-05-24T14:09:00.722Z,96.90
2023-05-24T14:11:31.451Z,96.30
2023-05-24T14:16:30.264Z,98.50
2023-05-24T14:18:57.848Z,98.70
2023-05-24T14:21:27.070Z,98.10
2023-05-24T14:23:54.857Z,97.10
2023-05-24T14:26:23.674Z,98.30
2023-05-24T14:28:54.450Z,97.60
2023-05-24T14:31:23.852Z,97.30
2023-05-24T14:33:51.273Z,97.50
2023-05-24T14:36:18.825Z,98.30
2023-05-24T14:38:46.684Z,97.30
2023-05-24T14:41:15.113Z,97.80
2023-05-24T14:43:42.546Z,97.30
2023-05-24T14:46:10.618Z,98.10
2023-05-24T14:48:41.436Z,96.00
2023-05-24T14:51:09.124Z,96.90
2023-05-24T14:53:36.758Z,97.30
2023-05-24T14:56:06.275Z,96.80
2023-05-24T14:58:33.793Z,96.80
2023-05-24T15:01:01.827Z,95.60
2023-05-24T15:03:29.465Z,95.80
2023-05-24T15:05:57.106Z,96.80
2023-05-24T15:08:24.745Z,96.20
2023-05-24T15:10:52.238Z,96.30
2023-05-24T15:13:20.350Z,96.60
2023-05-24T15:15:47.776Z,96.60
2023-05-24T15:18:15.215Z,96.70
2023-05-24T15:20:42.899Z,96.70
2023-05-24T15:23:11.148Z,96.90
2023-05-24T15:25:38.753Z,97.00
2023-05-24T15:28:06.363Z,97.00
2023-05-24T15:30:37.011Z,97.30
2023-05-24T15:33:04.473Z,97.20
2023-05-24T15:35:31.916Z,97.20
2023-05-24T15:37:59.430Z,97.30
2023-05-24T15:40:26.983Z,96.80
2023-05-24T15:42:54.415Z,97.00
2023-05-24T15:45:21.983Z,97.70
2023-05-24T15:47:49.469Z,97.60
2023-05-24T15:50:16.917Z,97.90
2023-05-24T15:52:44.394Z,98.60
2023-05-24T15:55:11.993Z,98.20
2023-05-24T15:57:39.400Z,98.60
2023-05-24T16:00:07.498Z,98.50
2023-05-24T16:02:39.745Z,99.00
2023-05-24T16:05:07.705Z,98.80
2023-05-24T16:07:35.380Z,99.00
2023-05-24T16:10:02.830Z,99.00
2023-05-24T16:12:30.802Z,99.40
2023-05-24T16:15:00.191Z,99.70
2023-05-24T16:17:27.774Z,99.60
2023-05-24T16:19:55.427Z,99.90
2023-05-24T16:22:23.935Z,99.90
2023-05-24T16:24:51.620Z,99.90
2023-05-24T16:27:19.343Z,99.90
2023-05-24T16:29:48.162Z,99.90
2023-05-24T16:32:19.057Z,99.80
2023-05-24T16:37:19.746Z,99.90
2023-05-24T16:39:47.107Z,99.90
2023-05-24T16:42:14.477Z,99.90
2023-05-24T16:44:41.884Z,99.90
2023-05-24T16:47:09.444Z,99.90
2023-05-24T16:49:36.874Z,99.90
2023-05-24T16:52:04.537Z,99.90
2023-05-24T16:54:31.998Z,99.90
2023-05-24T16:56:59.487Z,99.90
2023-05-24T16:59:26.916Z,99.90
2023-05-24T17:01:54.467Z,99.90
2023-05-24T17:04:21.935Z,99.90
2023-05-24T17:06:49.416Z,99.90
2023-05-24T17:09:16.957Z,99.90
2023-05-24T17:11:44.392Z,99.90
2023-05-24T17:14:11.823Z,99.90
2023-05-24T17:16:39.665Z,99.90
2023-05-24T17:19:07.186Z,99.90
2023-05-24T17:21:34.629Z,99.90
2023-05-24T17:24:02.025Z,99.90
2023-05-24T17:26:29.425Z,99.90
2023-05-24T17:28:57.092Z,99.90
2023-05-24T17:31:24.802Z,99.90
2023-05-24T17:33:55.042Z,99.90
2023-05-24T17:36:22.456Z,99.90
2023-05-24T17:38:49.833Z,99.90
2023-05-24T17:41:17.257Z,99.90
2023-05-24T17:43:44.712Z,99.90
2023-05-24T17:46:13.562Z,99.90
2023-05-24T17:48:42.745Z,99.90
2023-05-24T17:51:12.409Z,99.90
2023-05-24T17:53:43.084Z,99.90
2023-05-24T17:56:11.377Z,99.90
2023-05-24T17:58:39.156Z,99.90
2023-05-24T18:01:07.924Z,99.90
2023-05-24T18:03:39.180Z,99.90
2023-05-24T18:06:07.597Z,99.90
2023-05-24T18:08:37.876Z,99.90
2023-05-24T18:11:08.842Z,99.90
2023-05-24T18:13:38.934Z,99.90
2023-05-24T18:16:07.203Z,99.90
2023-05-24T18:18:34.635Z,99.90
2023-05-24T18:21:02.084Z,99.90
2023-05-24T18:23:29.688Z,99.90
2023-05-24T18:26:00.206Z,99.90
2023-05-24T18:28:28.319Z,99.90
2023-05-24T18:30:56.239Z,99.90
2023-05-24T18:33:24.365Z,99.90
2023-05-24T18:35:55.298Z,99.90
2023-05-24T18:38:22.700Z,99.90
2023-05-24T18:40:50.102Z,99.90
2023-05-24T18:43:17.510Z,99.90
2023-05-24T18:45:45.152Z,99.90
2023-05-24T18:48:12.810Z,99.90
2023-05-24T18:50:40.952Z,99.90
2023-05-24T18:53:09.490Z,99.90
2023-05-24T18:55:36.887Z,99.90
2023-05-24T18:58:04.281Z,99.90
2023-05-24T19:00:31.773Z,99.90
2023-05-24T19:02:59.229Z,99.90
2023-05-24T19:05:26.705Z,99.90
2023-05-24T19:07:54.188Z,99.90
2023-05-24T19:10:24.615Z,99.90
2023-05-24T19:12:52.399Z,99.90
2023-05-24T19:15:25.488Z,99.90
2023-05-24T19:17:55.544Z,99.90
2023-05-24T19:20:23.131Z,99.90
2023-05-24T19:22:50.812Z,99.90
2023-05-24T19:25:18.257Z,99.90
2023-05-24T19:27:58.488Z,99.90
2023-05-24T19:30:27.890Z,99.90
2023-05-24T19:32:55.481Z,99.90
2023-05-24T19:35:23.249Z,99.90
2023-05-24T19:37:51.030Z,99.90
2023-05-24T19:40:18.453Z,99.90
2023-05-24T19:42:46.040Z,99.90
2023-05-24T19:45:13.699Z,99.90
2023-05-24T19:47:41.355Z,99.90
2023-05-24T19:50:09.137Z,99.90
2023-05-24T19:52:36.566Z,99.90
2023-05-24T19:55:04.275Z,99.90
2023-05-24T19:57:31.672Z,99.90
2023-05-24T20:00:00.210Z,99.90
2023-05-24T20:02:27.664Z,99.90
2023-05-24T20:04:55.165Z,99.90
2023-05-24T20:07:22.686Z,99.90
2023-05-24T20:09:50.126Z,99.90
2023-05-24T20:12:17.665Z,99.90
2023-05-24T20:14:45.118Z,99.90
2023-05-24T20:17:12.516Z,99.90
2023-05-24T20:19:39.938Z,99.90
2023-05-24T20:22:07.509Z,99.90
2023-05-24T20:24:34.976Z,99.90
2023-05-24T20:27:02.395Z,99.90
2023-05-24T20:29:29.885Z,99.90
2023-05-24T20:31:58.223Z,99.90
2023-05-24T20:34:25.691Z,99.90
2023-05-24T20:36:53.144Z,99.90
2023-05-24T20:39:20.868Z,99.90
2023-05-24T20:41:48.324Z,99.90
2023-05-24T20:44:15.976Z,99.90
2023-05-24T20:46:43.426Z,99.90
2023-05-24T20:49:10.928Z,99.90
2023-05-24T20:51:38.470Z,99.90
2023-05-24T20:54:06.354Z,99.90
2023-05-24T20:56:33.844Z,99.90
2023-05-24T20:59:02.239Z,99.90
2023-05-24T21:01:29.715Z,99.90
2023-05-24T21:03:57.140Z,99.90
2023-05-24T21:06:26.419Z,99.90
2023-05-24T21:08:53.872Z,99.90
2023-05-24T21:11:21.800Z,99.90
2023-05-24T21:13:49.221Z,99.90
2023-05-24T21:16:16.685Z,99.90
2023-05-24T21:18:44.159Z,99.90
2023-05-24T21:21:15.424Z,99.90
2023-05-24T21:23:42.987Z,99.90
2023-05-24T21:26:10.512Z,99.90
2023-05-24T21:28:38.367Z,99.90
2023-05-24T21:31:06.953Z,99.90
2023-05-24T21:33:34.426Z,99.90
2023-05-24T21:36:03.184Z,99.90
2023-05-24T21:38:30.739Z,99.90
2023-05-24T21:40:58.289Z,99.90
2023-05-24T21:43:25.717Z,99.90
2023-05-24T21:45:53.125Z,99.90
2023-05-24T21:48:21.662Z,99.90
2023-05-24T21:50:49.208Z,99.90
2023-05-24T21:53:16.605Z,99.90
2023-05-24T21:55:44.254Z,99.90
2023-05-24T21:58:11.871Z,99.90
2023-05-24T22:00:39.290Z,99.90
2023-05-24T22:03:06.917Z,99.90
2023-05-24T22:05:34.367Z,99.90
2023-05-24T22:08:02.097Z,99.90
2023-05-24T22:10:29.551Z,99.90
2023-05-24T22:12:57.153Z,99.90
2023-05-24T22:15:24.559Z,99.90
2023-05-24T22:17:53.650Z,99.90
2023-05-24T22:20:22.456Z,99.90
2023-05-24T22:22:53.611Z,99.90
2023-05-24T22:25:21.597Z,99.90
2023-05-24T22:27:49.473Z,99.90
2023-05-24T22:30:17.613Z,99.90
2023-05-24T22:32:45.175Z,99.90
2023-05-24T22:35:12.824Z,99.90
2023-05-24T22:37:40.284Z,99.90
2023-05-24T22:40:08.241Z,99.90
2023-05-24T22:42:35.749Z,99.90
2023-05-24T22:45:03.415Z,99.90
2023-05-24T22:47:33.427Z,99.90
2023-05-24T22:50:02.162Z,99.90
2023-05-24T22:52:30.395Z,99.90
2023-05-24T22:54:57.922Z,99.90
2023-05-24T22:57:25.408Z,99.90
2023-05-24T22:59:53.184Z,99.90
2023-05-24T23:02:20.753Z,99.90
2023-05-24T23:04:48.416Z,99.90
2023-05-24T23:07:15.875Z,99.90
2023-05-24T23:09:44.020Z,99.90
2023-05-24T23:12:12.071Z,99.90
2023-05-24T23:14:41.590Z,99.90
2023-05-24T23:17:13.378Z,99.90
2023-05-24T23:19:46.559Z,99.90
2023-05-24T23:22:18.460Z,99.90
2023-05-24T23:24:47.587Z,99.90
2023-05-24T23:27:15.118Z,99.90
2023-05-24T23:29:42.653Z,99.90
2023-05-24T23:32:10.547Z,99.90
2023-05-24T23:34:38.134Z,99.90
2023-05-24T23:37:05.707Z,99.90
2023-05-24T23:39:33.142Z,99.90
2023-05-24T23:42:02.201Z,99.90
2023-05-24T23:44:29.770Z,99.90
2023-05-24T23:46:58.031Z,99.90
2023-05-24T23:49:25.856Z,99.90
2023-05-24T23:51:53.364Z,99.90
2023-05-24T23:54:20.753Z,99.90
2023-05-24T23:56:48.621Z,99.90
2023-05-24T23:59:17.300Z,99.90
